sensor_id;sensor_type;location;lat;lon;timestamp;P1;durP1;ratioP1;P2;durP2;ratioP2
3924;SDS011;1977;52.274;10.518;2023-06-22T00:02:00;12.27;;;11.07;;
3924;SDS011;1977;52.274;10.518;2023-06-22T00:04:27;12.83;;;11.63;;
3924;SDS011;1977;52.274;10.518;2023-06-22T00:06:54;13.33;;;12.03;;
3924;SDS011;1977;52.274;10.518;2023-06-22T00:09:22;12.53;;;11.33;;
3924;SDS011;1977;52.274;10.518;2023-06-22T00:11:48;12.37;;;11.17;;
3924;SDS011;1977;52.274;10.518;2023-06-22T00:14:15;12.87;;;11.60;;
3924;SDS011;1977;52.274;10.518;2023-06-22T00:16:42;12.30;;;11.20;;
3924;SDS011;1977;52.274;10.518;2023-06-22T00:19:09;11.97;;;10.90;;
3924;SDS011;1977;52.274;10.518;2023-06-22T00:21:37;11.17;;;10.20;;
3924;SDS011;1977;52.274;10.518;2023-06-22T00:24:04;11.83;;;10.73;;
3924;SDS011;1977;52.274;10.518;2023-06-22T00:26:33;12.60;;;11.40;;
3924;SDS011;1977;52.274;10.518;2023-06-22T00:29:00;14.07;;;12.80;;
3924;SDS011;1977;52.274;10.518;2023-06-22T00:31:27;14.03;;;12.73;;
3924;SDS011;1977;52.274;10.518;2023-06-22T00:33:53;12.67;;;11.47;;
3924;SDS011;1977;52.274;10.518;2023-06-22T00:36:20;12.60;;;11.50;;
3924;SDS011;1977;52.274;10.518;2023-06-22T00:38:49;12.87;;;11.57;;
3924;SDS011;1977;52.274;10.518;2023-06-22T00:41:16;13.13;;;11.93;;
3924;SDS011;1977;52.274;10.518;2023-06-22T00:43:44;11.87;;;10.87;;
3924;SDS011;1977;52.274;10.518;2023-06-22T00:46:11;13.43;;;12.13;;
3924;SDS011;1977;52.274;10.518;2023-06-22T00:48:38;13.87;;;12.60;;
3924;SDS011;1977;52.274;10.518;2023-06-22T00:51:06;13.47;;;12.17;;
3924;SDS011;1977;52.274;10.518;2023-06-22T00:53:33;13.40;;;12.10;;
3924;SDS011;1977;52.274;10.518;2023-06-22T00:56:03;12.23;;;11.03;;
3924;SDS011;1977;52.274;10.518;2023-06-22T00:58:30;13.63;;;12.30;;
3924;SDS011;1977;52.274;10.518;2023-06-22T01:00:59;13.00;;;11.70;;
3924;SDS011;1977;52.274;10.518;2023-06-22T01:03:27;12.40;;;11.30;;
3924;SDS011;1977;52.274;10.518;2023-06-22T01:05:55;12.83;;;11.57;;
3924;SDS011;1977;52.274;10.518;2023-06-22T01:08:29;13.43;;;12.23;;
3924;SDS011;1977;52.274;10.518;2023-06-22T01:11:05;13.83;;;12.40;;
3924;SDS011;1977;52.274;10.518;2023-06-22T01:13:37;12.80;;;11.60;;
3924;SDS011;1977;52.274;10.518;2023-06-22T01:16:12;13.40;;;12.17;;
3924;SDS011;1977;52.274;10.518;2023-06-22T01:18:43;14.03;;;12.57;;
3924;SDS011;1977;52.274;10.518;2023-06-22T01:21:12;14.60;;;13.10;;
3924;SDS011;1977;52.274;10.518;2023-06-22T01:23:49;15.43;;;13.80;;
3924;SDS011;1977;52.274;10.518;2023-06-22T01:26:28;13.10;;;11.90;;
3924;SDS011;1977;52.274;10.518;2023-06-22T01:29:05;12.97;;;11.67;;
3924;SDS011;1977;52.274;10.518;2023-06-22T01:31:34;12.77;;;11.57;;
3924;SDS011;1977;52.274;10.518;2023-06-22T01:34:02;12.97;;;11.77;;
3924;SDS011;1977;52.274;10.518;2023-06-22T01:36:31;14.13;;;12.63;;
3924;SDS011;1977;52.274;10.518;2023-06-22T01:38:59;13.43;;;12.10;;
3924;SDS011;1977;52.274;10.518;2023-06-22T01:41:27;13.53;;;12.23;;
3924;SDS011;1977;52.274;10.518;2023-06-22T01:43:56;13.43;;;12.13;;
3924;SDS011;1977;52.274;10.518;2023-06-22T01:46:24;14.00;;;12.70;;
3924;SDS011;1977;52.274;10.518;2023-06-22T01:48:51;13.57;;;12.20;;
3924;SDS011;1977;52.274;10.518;2023-06-22T01:51:19;13.70;;;12.40;;
3924;SDS011;1977;52.274;10.518;2023-06-22T01:53:46;13.77;;;12.47;;
3924;SDS011;1977;52.274;10.518;2023-06-22T01:56:13;13.87;;;12.43;;
3924;SDS011;1977;52.274;10.518;2023-06-22T01:58:44;13.50;;;12.20;;
3924;SDS011;1977;52.274;10.518;2023-06-22T02:01:14;13.60;;;11.43;;
3924;SDS011;1977;52.274;10.518;2023-06-22T02:03:50;14.17;;;12.80;;
3924;SDS011;1977;52.274;10.518;2023-06-22T02:06:21;14.23;;;11.47;;
3924;SDS011;1977;52.274;10.518;2023-06-22T02:08:51;13.83;;;12.57;;
3924;SDS011;1977;52.274;10.518;2023-06-22T02:11:22;13.53;;;12.23;;
3924;SDS011;1977;52.274;10.518;2023-06-22T02:13:52;14.43;;;13.03;;
3924;SDS011;1977;52.274;10.518;2023-06-22T02:16:19;14.47;;;13.07;;
3924;SDS011;1977;52.274;10.518;2023-06-22T02:18:48;13.40;;;12.20;;
3924;SDS011;1977;52.274;10.518;2023-06-22T02:21:16;14.83;;;13.43;;
3924;SDS011;1977;52.274;10.518;2023-06-22T02:23:43;13.47;;;12.27;;
3924;SDS011;1977;52.274;10.518;2023-06-22T02:26:11;12.70;;;11.50;;
3924;SDS011;1977;52.274;10.518;2023-06-22T02:28:38;13.30;;;12.00;;
3924;SDS011;1977;52.274;10.518;2023-06-22T02:31:05;13.40;;;12.10;;
3924;SDS011;1977;52.274;10.518;2023-06-22T02:33:31;13.47;;;12.27;;
3924;SDS011;1977;52.274;10.518;2023-06-22T02:35:59;11.87;;;10.77;;
3924;SDS011;1977;52.274;10.518;2023-06-22T02:38:30;13.07;;;11.87;;
3924;SDS011;1977;52.274;10.518;2023-06-22T02:40:59;12.80;;;11.53;;
3924;SDS011;1977;52.274;10.518;2023-06-22T02:43:26;13.83;;;12.53;;
3924;SDS011;1977;52.274;10.518;2023-06-22T02:45:53;11.90;;;10.70;;
3924;SDS011;1977;52.274;10.518;2023-06-22T02:48:20;14.03;;;12.83;;
3924;SDS011;1977;52.274;10.518;2023-06-22T02:50:46;13.53;;;12.23;;
3924;SDS011;1977;52.274;10.518;2023-06-22T02:53:14;13.30;;;11.70;;
3924;SDS011;1977;52.274;10.518;2023-06-22T02:55:41;13.03;;;11.93;;
3924;SDS011;1977;52.274;10.518;2023-06-22T02:58:08;12.80;;;11.67;;
3924;SDS011;1977;52.274;10.518;2023-06-22T03:00:35;13.80;;;12.40;;
3924;SDS011;1977;52.274;10.518;2023-06-22T03:03:01;12.00;;;11.00;;
3924;SDS011;1977;52.274;10.518;2023-06-22T03:05:28;12.30;;;11.07;;
3924;SDS011;1977;52.274;10.518;2023-06-22T03:07:55;13.27;;;11.87;;
3924;SDS011;1977;52.274;10.518;2023-06-22T03:10:23;12.10;;;11.00;;
3924;SDS011;1977;52.274;10.518;2023-06-22T03:12:49;12.70;;;11.50;;
3924;SDS011;1977;52.274;10.518;2023-06-22T03:15:16;12.27;;;11.07;;
3924;SDS011;1977;52.274;10.518;2023-06-22T03:17:43;12.20;;;11.00;;
3924;SDS011;1977;52.274;10.518;2023-06-22T03:20:10;12.73;;;11.57;;
3924;SDS011;1977;52.274;10.518;2023-06-22T03:22:37;13.40;;;12.03;;
3924;SDS011;1977;52.274;10.518;2023-06-22T03:25:05;12.40;;;11.30;;
3924;SDS011;1977;52.274;10.518;2023-06-22T03:27:36;13.47;;;11.07;;
3924;SDS011;1977;52.274;10.518;2023-06-22T03:30:04;12.30;;;11.10;;
3924;SDS011;1977;52.274;10.518;2023-06-22T03:32:31;12.43;;;11.13;;
3924;SDS011;1977;52.274;10.518;2023-06-22T03:34:58;13.10;;;11.93;;
3924;SDS011;1977;52.274;10.518;2023-06-22T03:37:25;12.03;;;10.93;;
3924;SDS011;1977;52.274;10.518;2023-06-22T03:39:52;14.30;;;12.90;;
3924;SDS011;1977;52.274;10.518;2023-06-22T03:42:19;12.10;;;11.03;;
3924;SDS011;1977;52.274;10.518;2023-06-22T03:44:47;12.10;;;11.00;;
3924;SDS011;1977;52.274;10.518;2023-06-22T03:47:14;12.40;;;11.20;;
3924;SDS011;1977;52.274;10.518;2023-06-22T03:49:41;12.47;;;11.27;;
3924;SDS011;1977;52.274;10.518;2023-06-22T03:52:08;11.33;;;10.33;;
3924;SDS011;1977;52.274;10.518;2023-06-22T03:54:36;11.77;;;10.67;;
3924;SDS011;1977;52.274;10.518;2023-06-22T03:57:03;10.57;;;9.67;;
3924;SDS011;1977;52.274;10.518;2023-06-22T03:59:30;12.33;;;10.17;;
3924;SDS011;1977;52.274;10.518;2023-06-22T04:01:58;11.47;;;10.37;;
3924;SDS011;1977;52.274;10.518;2023-06-22T04:04:25;11.97;;;10.87;;
3924;SDS011;1977;52.274;10.518;2023-06-22T04:06:52;11.70;;;10.70;;
3924;SDS011;1977;52.274;10.518;2023-06-22T04:09:19;12.33;;;11.20;;
3924;SDS011;1977;52.274;10.518;2023-06-22T04:11:46;11.67;;;10.50;;
3924;SDS011;1977;52.274;10.518;2023-06-22T04:14:13;11.87;;;10.80;;
3924;SDS011;1977;52.274;10.518;2023-06-22T04:16:40;11.33;;;10.23;;
3924;SDS011;1977;52.274;10.518;2023-06-22T04:19:08;12.00;;;10.80;;
3924;SDS011;1977;52.274;10.518;2023-06-22T04:21:41;11.00;;;10.00;;
3924;SDS011;1977;52.274;10.518;2023-06-22T04:24:08;12.90;;;11.60;;
3924;SDS011;1977;52.274;10.518;2023-06-22T04:26:34;13.17;;;11.77;;
3924;SDS011;1977;52.274;10.518;2023-06-22T04:29:02;13.10;;;11.83;;
3924;SDS011;1977;52.274;10.518;2023-06-22T04:31:30;13.67;;;11.77;;
3924;SDS011;1977;52.274;10.518;2023-06-22T04:33:57;10.50;;;9.60;;
3924;SDS011;1977;52.274;10.518;2023-06-22T04:36:31;11.90;;;10.70;;
3924;SDS011;1977;52.274;10.518;2023-06-22T04:39:02;12.87;;;11.63;;
3924;SDS011;1977;52.274;10.518;2023-06-22T04:41:30;12.13;;;11.03;;
3924;SDS011;1977;52.274;10.518;2023-06-22T04:44:07;11.57;;;10.60;;
3924;SDS011;1977;52.274;10.518;2023-06-22T04:46:34;11.60;;;10.53;;
3924;SDS011;1977;52.274;10.518;2023-06-22T04:49:03;11.80;;;10.60;;
3924;SDS011;1977;52.274;10.518;2023-06-22T04:51:38;9.73;;;8.93;;
3924;SDS011;1977;52.274;10.518;2023-06-22T04:54:08;10.10;;;9.30;;
3924;SDS011;1977;52.274;10.518;2023-06-22T04:56:36;11.50;;;10.53;;
3924;SDS011;1977;52.274;10.518;2023-06-22T04:59:06;10.73;;;9.73;;
3924;SDS011;1977;52.274;10.518;2023-06-22T05:01:38;10.90;;;9.90;;
3924;SDS011;1977;52.274;10.518;2023-06-22T05:04:04;10.83;;;9.93;;
3924;SDS011;1977;52.274;10.518;2023-06-22T05:06:31;10.47;;;9.57;;
3924;SDS011;1977;52.274;10.518;2023-06-22T05:08:59;10.43;;;9.53;;
3924;SDS011;1977;52.274;10.518;2023-06-22T05:11:27;9.43;;;8.53;;
3924;SDS011;1977;52.274;10.518;2023-06-22T05:13:54;9.57;;;8.87;;
3924;SDS011;1977;52.274;10.518;2023-06-22T05:16:21;9.87;;;9.00;;
3924;SDS011;1977;52.274;10.518;2023-06-22T05:18:50;10.40;;;9.40;;
3924;SDS011;1977;52.274;10.518;2023-06-22T05:21:20;10.07;;;9.27;;
3924;SDS011;1977;52.274;10.518;2023-06-22T05:23:47;9.70;;;8.80;;
3924;SDS011;1977;52.274;10.518;2023-06-22T05:26:16;10.67;;;9.60;;
3924;SDS011;1977;52.274;10.518;2023-06-22T05:28:42;10.90;;;10.00;;
3924;SDS011;1977;52.274;10.518;2023-06-22T05:31:11;11.13;;;10.20;;
3924;SDS011;1977;52.274;10.518;2023-06-22T05:33:38;14.23;;;11.87;;
3924;SDS011;1977;52.274;10.518;2023-06-22T05:36:05;11.43;;;10.33;;
3924;SDS011;1977;52.274;10.518;2023-06-22T05:38:31;9.43;;;8.57;;
3924;SDS011;1977;52.274;10.518;2023-06-22T05:40:58;12.07;;;9.80;;
3924;SDS011;1977;52.274;10.518;2023-06-22T05:43:26;9.87;;;9.07;;
3924;SDS011;1977;52.274;10.518;2023-06-22T05:45:53;10.37;;;9.37;;
3924;SDS011;1977;52.274;10.518;2023-06-22T05:48:20;10.10;;;9.10;;
3924;SDS011;1977;52.274;10.518;2023-06-22T05:50:47;9.77;;;8.97;;
3924;SDS011;1977;52.274;10.518;2023-06-22T05:53:13;9.90;;;9.10;;
3924;SDS011;1977;52.274;10.518;2023-06-22T05:55:40;10.37;;;9.37;;
3924;SDS011;1977;52.274;10.518;2023-06-22T05:58:07;9.90;;;9.00;;
3924;SDS011;1977;52.274;10.518;2023-06-22T06:00:35;10.07;;;9.10;;
3924;SDS011;1977;52.274;10.518;2023-06-22T06:03:02;8.53;;;7.67;;
3924;SDS011;1977;52.274;10.518;2023-06-22T06:05:29;8.73;;;8.00;;
3924;SDS011;1977;52.274;10.518;2023-06-22T06:07:56;9.60;;;8.80;;
3924;SDS011;1977;52.274;10.518;2023-06-22T06:10:23;8.97;;;8.07;;
3924;SDS011;1977;52.274;10.518;2023-06-22T06:12:50;9.60;;;8.90;;
3924;SDS011;1977;52.274;10.518;2023-06-22T06:15:17;9.50;;;8.70;;
3924;SDS011;1977;52.274;10.518;2023-06-22T06:17:49;8.77;;;8.07;;
3924;SDS011;1977;52.274;10.518;2023-06-22T06:20:19;9.80;;;8.80;;
3924;SDS011;1977;52.274;10.518;2023-06-22T06:22:46;9.30;;;8.53;;
3924;SDS011;1977;52.274;10.518;2023-06-22T06:25:13;8.83;;;8.13;;
3924;SDS011;1977;52.274;10.518;2023-06-22T06:27:42;9.23;;;8.43;;
3924;SDS011;1977;52.274;10.518;2023-06-22T06:30:09;9.60;;;8.60;;
3924;SDS011;1977;52.274;10.518;2023-06-22T06:32:37;8.47;;;7.87;;
3924;SDS011;1977;52.274;10.518;2023-06-22T06:35:06;9.70;;;8.90;;
3924;SDS011;1977;52.274;10.518;2023-06-22T06:37:35;8.70;;;8.00;;
3924;SDS011;1977;52.274;10.518;2023-06-22T06:40:03;9.27;;;8.43;;
3924;SDS011;1977;52.274;10.518;2023-06-22T06:42:32;8.83;;;8.07;;
3924;SDS011;1977;52.274;10.518;2023-06-22T06:44:58;8.80;;;7.97;;
3924;SDS011;1977;52.274;10.518;2023-06-22T06:47:25;9.83;;;8.97;;
3924;SDS011;1977;52.274;10.518;2023-06-22T06:49:52;9.60;;;8.60;;
3924;SDS011;1977;52.274;10.518;2023-06-22T06:52:20;9.23;;;8.33;;
3924;SDS011;1977;52.274;10.518;2023-06-22T06:54:47;9.57;;;8.63;;
3924;SDS011;1977;52.274;10.518;2023-06-22T06:57:13;9.20;;;8.43;;
3924;SDS011;1977;52.274;10.518;2023-06-22T06:59:40;9.73;;;9.03;;
3924;SDS011;1977;52.274;10.518;2023-06-22T07:02:07;9.80;;;8.80;;
3924;SDS011;1977;52.274;10.518;2023-06-22T07:04:34;9.10;;;8.30;;
3924;SDS011;1977;52.274;10.518;2023-06-22T07:07:01;9.00;;;8.30;;
3924;SDS011;1977;52.274;10.518;2023-06-22T07:09:30;9.00;;;8.30;;
3924;SDS011;1977;52.274;10.518;2023-06-22T07:11:57;10.87;;;9.87;;
3924;SDS011;1977;52.274;10.518;2023-06-22T07:14:23;10.30;;;9.30;;
3924;SDS011;1977;52.274;10.518;2023-06-22T07:16:50;10.50;;;9.60;;
3924;SDS011;1977;52.274;10.518;2023-06-22T07:19:17;9.63;;;8.80;;
3924;SDS011;1977;52.274;10.518;2023-06-22T07:21:51;11.40;;;10.20;;
3924;SDS011;1977;52.274;10.518;2023-06-22T07:24:18;10.73;;;9.73;;
3924;SDS011;1977;52.274;10.518;2023-06-22T07:26:47;10.37;;;9.40;;
3924;SDS011;1977;52.274;10.518;2023-06-22T07:29:15;10.33;;;9.33;;
3924;SDS011;1977;52.274;10.518;2023-06-22T07:31:42;11.03;;;10.13;;
3924;SDS011;1977;52.274;10.518;2023-06-22T07:34:08;13.40;;;11.67;;
3924;SDS011;1977;52.274;10.518;2023-06-22T07:36:35;10.23;;;9.40;;
3924;SDS011;1977;52.274;10.518;2023-06-22T07:39:02;10.30;;;9.30;;
3924;SDS011;1977;52.274;10.518;2023-06-22T07:41:29;11.10;;;10.10;;
3924;SDS011;1977;52.274;10.518;2023-06-22T07:43:58;9.97;;;9.17;;
3924;SDS011;1977;52.274;10.518;2023-06-22T07:46:24;10.77;;;9.90;;
3924;SDS011;1977;52.274;10.518;2023-06-22T07:48:51;11.60;;;10.50;;
3924;SDS011;1977;52.274;10.518;2023-06-22T07:51:18;10.73;;;9.70;;
3924;SDS011;1977;52.274;10.518;2023-06-22T07:53:45;10.03;;;9.23;;
3924;SDS011;1977;52.274;10.518;2023-06-22T07:56:12;11.20;;;10.30;;
3924;SDS011;1977;52.274;10.518;2023-06-22T07:58:39;11.43;;;10.37;;
3924;SDS011;1977;52.274;10.518;2023-06-22T08:01:07;11.00;;;9.47;;
3924;SDS011;1977;52.274;10.518;2023-06-22T08:03:34;11.97;;;10.97;;
3924;SDS011;1977;52.274;10.518;2023-06-22T08:06:00;11.13;;;10.23;;
3924;SDS011;1977;52.274;10.518;2023-06-22T08:08:27;11.80;;;10.70;;
3924;SDS011;1977;52.274;10.518;2023-06-22T08:10:54;11.80;;;10.70;;
3924;SDS011;1977;52.274;10.518;2023-06-22T08:13:20;10.23;;;9.43;;
3924;SDS011;1977;52.274;10.518;2023-06-22T08:15:47;12.60;;;11.40;;
3924;SDS011;1977;52.274;10.518;2023-06-22T08:18:15;12.53;;;11.37;;
3924;SDS011;1977;52.274;10.518;2023-06-22T08:20:43;13.80;;;12.40;;
3924;SDS011;1977;52.274;10.518;2023-06-22T08:23:10;11.53;;;10.53;;
3924;SDS011;1977;52.274;10.518;2023-06-22T08:25:37;12.60;;;11.40;;
3924;SDS011;1977;52.274;10.518;2023-06-22T08:28:04;12.50;;;11.50;;
3924;SDS011;1977;52.274;10.518;2023-06-22T08:30:31;13.80;;;12.47;;
3924;SDS011;1977;52.274;10.518;2023-06-22T08:32:57;12.70;;;11.60;;
3924;SDS011;1977;52.274;10.518;2023-06-22T08:35:26;13.60;;;12.27;;
3924;SDS011;1977;52.274;10.518;2023-06-22T08:37:53;12.80;;;11.70;;
3924;SDS011;1977;52.274;10.518;2023-06-22T08:40:22;13.13;;;12.03;;
3924;SDS011;1977;52.274;10.518;2023-06-22T08:42:49;13.83;;;12.43;;
3924;SDS011;1977;52.274;10.518;2023-06-22T08:45:16;13.63;;;12.43;;
3924;SDS011;1977;52.274;10.518;2023-06-22T08:47:43;15.80;;;14.30;;
3924;SDS011;1977;52.274;10.518;2023-06-22T08:50:10;15.93;;;14.53;;
3924;SDS011;1977;52.274;10.518;2023-06-22T08:52:40;15.17;;;13.77;;
3924;SDS011;1977;52.274;10.518;2023-06-22T08:55:07;14.13;;;12.73;;
3924;SDS011;1977;52.274;10.518;2023-06-22T08:57:34;17.10;;;13.20;;
3924;SDS011;1977;52.274;10.518;2023-06-22T09:00:02;15.23;;;13.93;;
3924;SDS011;1977;52.274;10.518;2023-06-22T09:02:32;15.07;;;13.67;;
3924;SDS011;1977;52.274;10.518;2023-06-22T09:05:02;14.27;;;13.07;;
3924;SDS011;1977;52.274;10.518;2023-06-22T09:07:30;16.20;;;14.70;;
3924;SDS011;1977;52.274;10.518;2023-06-22T09:09:58;14.40;;;13.20;;
3924;SDS011;1977;52.274;10.518;2023-06-22T09:12:24;15.40;;;14.10;;
3924;SDS011;1977;52.274;10.518;2023-06-22T09:14:52;16.70;;;15.10;;
3924;SDS011;1977;52.274;10.518;2023-06-22T09:17:19;16.03;;;14.70;;
3924;SDS011;1977;52.274;10.518;2023-06-22T09:19:46;15.40;;;13.90;;
3924;SDS011;1977;52.274;10.518;2023-06-22T09:22:13;15.17;;;13.93;;
3924;SDS011;1977;52.274;10.518;2023-06-22T09:24:40;17.30;;;15.80;;
3924;SDS011;1977;52.274;10.518;2023-06-22T09:27:08;15.97;;;14.40;;
3924;SDS011;1977;52.274;10.518;2023-06-22T09:29:35;15.83;;;14.23;;
3924;SDS011;1977;52.274;10.518;2023-06-22T09:32:02;16.20;;;14.73;;
3924;SDS011;1977;52.274;10.518;2023-06-22T09:34:29;15.93;;;14.37;;
3924;SDS011;1977;52.274;10.518;2023-06-22T09:36:56;14.67;;;13.47;;
3924;SDS011;1977;52.274;10.518;2023-06-22T09:39:25;15.00;;;13.70;;
3924;SDS011;1977;52.274;10.518;2023-06-22T09:41:52;15.23;;;13.93;;
3924;SDS011;1977;52.274;10.518;2023-06-22T09:44:20;14.63;;;13.43;;
3924;SDS011;1977;52.274;10.518;2023-06-22T09:46:47;14.23;;;13.03;;
3924;SDS011;1977;52.274;10.518;2023-06-22T09:49:13;14.67;;;13.50;;
3924;SDS011;1977;52.274;10.518;2023-06-22T09:51:40;15.30;;;13.80;;
3924;SDS011;1977;52.274;10.518;2023-06-22T09:54:07;17.30;;;14.47;;
3924;SDS011;1977;52.274;10.518;2023-06-22T09:56:33;14.40;;;13.20;;
3924;SDS011;1977;52.274;10.518;2023-06-22T09:59:02;14.40;;;13.20;;
3924;SDS011;1977;52.274;10.518;2023-06-22T10:01:30;14.23;;;12.73;;
3924;SDS011;1977;52.274;10.518;2023-06-22T10:03:57;12.80;;;11.77;;
3924;SDS011;1977;52.274;10.518;2023-06-22T10:06:24;13.90;;;12.80;;
3924;SDS011;1977;52.274;10.518;2023-06-22T10:08:51;14.03;;;12.93;;
3924;SDS011;1977;52.274;10.518;2023-06-22T10:11:17;14.10;;;12.90;;
3924;SDS011;1977;52.274;10.518;2023-06-22T10:13:44;13.90;;;12.80;;
3924;SDS011;1977;52.274;10.518;2023-06-22T10:16:11;14.60;;;13.37;;
3924;SDS011;1977;52.274;10.518;2023-06-22T10:18:39;14.37;;;12.97;;
3924;SDS011;1977;52.274;10.518;2023-06-22T10:21:06;14.00;;;12.70;;
3924;SDS011;1977;52.274;10.518;2023-06-22T10:23:33;16.33;;;14.80;;
3924;SDS011;1977;52.274;10.518;2023-06-22T10:25:59;16.47;;;15.07;;
3924;SDS011;1977;52.274;10.518;2023-06-22T10:28:26;15.50;;;14.20;;
3924;SDS011;1977;52.274;10.518;2023-06-22T10:30:53;16.00;;;14.57;;
3924;SDS011;1977;52.274;10.518;2023-06-22T10:33:19;16.33;;;14.93;;
3924;SDS011;1977;52.274;10.518;2023-06-22T10:35:48;16.03;;;14.47;;
3924;SDS011;1977;52.274;10.518;2023-06-22T10:38:14;15.40;;;14.00;;
3924;SDS011;1977;52.274;10.518;2023-06-22T10:40:41;16.17;;;14.80;;
3924;SDS011;1977;52.274;10.518;2023-06-22T10:43:08;15.50;;;14.20;;
3924;SDS011;1977;52.274;10.518;2023-06-22T10:45:34;15.97;;;14.63;;
3924;SDS011;1977;52.274;10.518;2023-06-22T10:48:01;16.23;;;14.50;;
3924;SDS011;1977;52.274;10.518;2023-06-22T10:50:29;16.80;;;15.40;;
3924;SDS011;1977;52.274;10.518;2023-06-22T10:52:57;16.50;;;14.90;;
3924;SDS011;1977;52.274;10.518;2023-06-22T10:55:24;14.43;;;13.03;;
3924;SDS011;1977;52.274;10.518;2023-06-22T10:57:50;13.30;;;12.30;;
3924;SDS011;1977;52.274;10.518;2023-06-22T11:00:17;14.20;;;13.00;;
3924;SDS011;1977;52.274;10.518;2023-06-22T11:02:44;15.60;;;14.20;;
3924;SDS011;1977;52.274;10.518;2023-06-22T11:05:11;14.73;;;13.53;;
3924;SDS011;1977;52.274;10.518;2023-06-22T11:07:38;16.20;;;14.60;;
3924;SDS011;1977;52.274;10.518;2023-06-22T11:10:09;13.93;;;12.83;;
3924;SDS011;1977;52.274;10.518;2023-06-22T11:12:36;12.20;;;11.20;;
3924;SDS011;1977;52.274;10.518;2023-06-22T11:15:03;14.67;;;13.37;;
3924;SDS011;1977;52.274;10.518;2023-06-22T11:17:30;14.30;;;13.20;;
3924;SDS011;1977;52.274;10.518;2023-06-22T11:19:57;12.90;;;11.90;;
3924;SDS011;1977;52.274;10.518;2023-06-22T11:22:25;12.60;;;11.60;;
3924;SDS011;1977;52.274;10.518;2023-06-22T11:24:52;14.03;;;12.93;;
3924;SDS011;1977;52.274;10.518;2023-06-22T11:27:20;13.73;;;12.60;;
3924;SDS011;1977;52.274;10.518;2023-06-22T11:29:46;14.37;;;13.27;;
3924;SDS011;1977;52.274;10.518;2023-06-22T11:32:14;14.47;;;13.27;;
3924;SDS011;1977;52.274;10.518;2023-06-22T11:34:41;13.30;;;12.20;;
3924;SDS011;1977;52.274;10.518;2023-06-22T11:37:08;14.23;;;13.13;;
3924;SDS011;1977;52.274;10.518;2023-06-22T11:39:35;13.60;;;12.60;;
3924;SDS011;1977;52.274;10.518;2023-06-22T11:42:01;12.17;;;11.27;;
3924;SDS011;1977;52.274;10.518;2023-06-22T11:44:30;13.30;;;12.00;;
3924;SDS011;1977;52.274;10.518;2023-06-22T11:46:56;13.07;;;11.87;;
3924;SDS011;1977;52.274;10.518;2023-06-22T11:49:25;12.67;;;11.67;;
3924;SDS011;1977;52.274;10.518;2023-06-22T11:51:52;12.00;;;11.00;;
3924;SDS011;1977;52.274;10.518;2023-06-22T11:54:19;13.33;;;12.23;;
3924;SDS011;1977;52.274;10.518;2023-06-22T11:56:46;12.80;;;11.70;;
3924;SDS011;1977;52.274;10.518;2023-06-22T11:59:12;12.30;;;11.37;;
3924;SDS011;1977;52.274;10.518;2023-06-22T12:01:41;11.50;;;10.53;;
3924;SDS011;1977;52.274;10.518;2023-06-22T12:04:07;12.17;;;10.97;;
3924;SDS011;1977;52.274;10.518;2023-06-22T12:06:37;12.57;;;11.57;;
3924;SDS011;1977;52.274;10.518;2023-06-22T12:09:07;11.73;;;10.73;;
3924;SDS011;1977;52.274;10.518;2023-06-22T12:11:33;12.20;;;11.20;;
3924;SDS011;1977;52.274;10.518;2023-06-22T12:14:00;12.80;;;11.80;;
3924;SDS011;1977;52.274;10.518;2023-06-22T12:16:27;11.30;;;10.27;;
3924;SDS011;1977;52.274;10.518;2023-06-22T12:18:55;12.17;;;11.23;;
3924;SDS011;1977;52.274;10.518;2023-06-22T12:21:22;12.33;;;11.33;;
3924;SDS011;1977;52.274;10.518;2023-06-22T12:23:49;12.50;;;11.50;;
3924;SDS011;1977;52.274;10.518;2023-06-22T12:26:16;11.33;;;10.53;;
3924;SDS011;1977;52.274;10.518;2023-06-22T12:28:42;11.23;;;10.30;;
3924;SDS011;1977;52.274;10.518;2023-06-22T12:31:09;11.20;;;10.30;;
3924;SDS011;1977;52.274;10.518;2023-06-22T12:33:36;11.87;;;10.87;;
3924;SDS011;1977;52.274;10.518;2023-06-22T12:36:04;12.60;;;11.60;;
3924;SDS011;1977;52.274;10.518;2023-06-22T12:38:31;11.50;;;10.60;;
3924;SDS011;1977;52.274;10.518;2023-06-22T12:40:58;11.00;;;10.10;;
3924;SDS011;1977;52.274;10.518;2023-06-22T12:43:25;10.60;;;9.50;;
3924;SDS011;1977;52.274;10.518;2023-06-22T12:45:51;12.60;;;11.40;;
3924;SDS011;1977;52.274;10.518;2023-06-22T12:48:18;13.27;;;12.27;;
3924;SDS011;1977;52.274;10.518;2023-06-22T12:50:45;13.50;;;12.20;;
3924;SDS011;1977;52.274;10.518;2023-06-22T12:53:14;13.50;;;12.30;;
3924;SDS011;1977;52.274;10.518;2023-06-22T12:55:40;12.67;;;11.77;;
3924;SDS011;1977;52.274;10.518;2023-06-22T12:58:07;12.63;;;11.63;;
3924;SDS011;1977;52.274;10.518;2023-06-22T13:00:34;12.20;;;11.20;;
3924;SDS011;1977;52.274;10.518;2023-06-22T13:03:01;12.17;;;11.17;;
3924;SDS011;1977;52.274;10.518;2023-06-22T13:05:28;12.23;;;11.30;;
3924;SDS011;1977;52.274;10.518;2023-06-22T13:07:55;12.07;;;11.17;;
3924;SDS011;1977;52.274;10.518;2023-06-22T13:10:23;12.80;;;11.70;;
3924;SDS011;1977;52.274;10.518;2023-06-22T13:12:50;13.67;;;12.63;;
3924;SDS011;1977;52.274;10.518;2023-06-22T13:15:17;14.23;;;12.93;;
3924;SDS011;1977;52.274;10.518;2023-06-22T13:17:43;12.37;;;11.37;;
3924;SDS011;1977;52.274;10.518;2023-06-22T13:20:10;12.83;;;11.80;;
3924;SDS011;1977;52.274;10.518;2023-06-22T13:22:37;14.07;;;12.97;;
3924;SDS011;1977;52.274;10.518;2023-06-22T13:25:07;13.80;;;12.60;;
3924;SDS011;1977;52.274;10.518;2023-06-22T13:27:38;13.87;;;12.77;;
3924;SDS011;1977;52.274;10.518;2023-06-22T13:30:05;15.43;;;14.13;;
3924;SDS011;1977;52.274;10.518;2023-06-22T13:32:33;13.93;;;12.73;;
3924;SDS011;1977;52.274;10.518;2023-06-22T13:35:00;13.43;;;12.43;;
3924;SDS011;1977;52.274;10.518;2023-06-22T13:37:26;13.13;;;12.13;;
3924;SDS011;1977;52.274;10.518;2023-06-22T13:39:53;13.03;;;11.93;;
3924;SDS011;1977;52.274;10.518;2023-06-22T13:42:21;16.83;;;13.77;;
3924;SDS011;1977;52.274;10.518;2023-06-22T13:44:49;14.03;;;12.93;;
3924;SDS011;1977;52.274;10.518;2023-06-22T13:47:15;14.87;;;13.67;;
3924;SDS011;1977;52.274;10.518;2023-06-22T13:49:42;14.27;;;12.87;;
3924;SDS011;1977;52.274;10.518;2023-06-22T13:52:09;14.03;;;12.87;;
3924;SDS011;1977;52.274;10.518;2023-06-22T13:54:37;14.60;;;13.30;;
3924;SDS011;1977;52.274;10.518;2023-06-22T13:57:04;15.27;;;13.87;;
3924;SDS011;1977;52.274;10.518;2023-06-22T13:59:31;15.00;;;13.50;;
3924;SDS011;1977;52.274;10.518;2023-06-22T14:01:59;14.63;;;13.53;;
3924;SDS011;1977;52.274;10.518;2023-06-22T14:04:26;14.00;;;12.90;;
3924;SDS011;1977;52.274;10.518;2023-06-22T14:06:53;13.93;;;12.83;;
3924;SDS011;1977;52.274;10.518;2023-06-22T14:09:21;15.00;;;13.70;;
3924;SDS011;1977;52.274;10.518;2023-06-22T14:11:48;14.30;;;13.20;;
3924;SDS011;1977;52.274;10.518;2023-06-22T14:14:14;15.03;;;13.43;;
3924;SDS011;1977;52.274;10.518;2023-06-22T14:16:41;14.77;;;13.57;;
3924;SDS011;1977;52.274;10.518;2023-06-22T14:19:09;15.03;;;13.73;;
3924;SDS011;1977;52.274;10.518;2023-06-22T14:21:36;15.03;;;13.53;;
3924;SDS011;1977;52.274;10.518;2023-06-22T14:24:03;14.70;;;13.40;;
3924;SDS011;1977;52.274;10.518;2023-06-22T14:26:30;14.27;;;13.13;;
3924;SDS011;1977;52.274;10.518;2023-06-22T14:28:56;14.33;;;12.90;;
3924;SDS011;1977;52.274;10.518;2023-06-22T14:31:23;14.60;;;13.40;;
3924;SDS011;1977;52.274;10.518;2023-06-22T14:33:50;14.30;;;13.00;;
3924;SDS011;1977;52.274;10.518;2023-06-22T14:36:18;16.07;;;14.77;;
3924;SDS011;1977;52.274;10.518;2023-06-22T14:38:45;14.47;;;13.30;;
3924;SDS011;1977;52.274;10.518;2023-06-22T14:41:12;15.47;;;14.20;;